sensor_id;sensor_type;location;lat;lon;timestamp;P1;durP1;ratioP1;P2;durP2;ratioP2
13469;SDS011;6807;48.682;9.032;2023-03-30T00:00:31;4.78;;;2.13;;
13469;SDS011;6807;48.682;9.032;2023-03-30T00:03:02;9.77;;;2.75;;
13469;SDS011;6807;48.682;9.032;2023-03-30T00:05:33;9.98;;;2.78;;
13469;SDS011;6807;48.682;9.032;2023-03-30T00:08:00;11.05;;;2.80;;
13469;SDS011;6807;48.682;9.032;2023-03-30T00:10:27;6.60;;;2.50;;
13469;SDS011;6807;48.682;9.032;2023-03-30T00:12:54;10.90;;;3.05;;
13469;SDS011;6807;48.682;9.032;2023-03-30T00:15:22;10.70;;;2.50;;
13469;SDS011;6807;48.682;9.032;2023-03-30T00:17:49;7.00;;;2.80;;
13469;SDS011;6807;48.682;9.032;2023-03-30T00:20:19;4.25;;;2.60;;
13469;SDS011;6807;48.682;9.032;2023-03-30T00:22:48;7.13;;;2.90;;
13469;SDS011;6807;48.682;9.032;2023-03-30T00:25:16;8.32;;;3.10;;
13469;SDS011;6807;48.682;9.032;2023-03-30T00:27:44;7.70;;;3.38;;
13469;SDS011;6807;48.682;9.032;2023-03-30T00:30:14;8.57;;;3.55;;
13469;SDS011;6807;48.682;9.032;2023-03-30T00:32:42;10.32;;;2.83;;
13469;SDS011;6807;48.682;9.032;2023-03-30T00:35:09;7.07;;;2.58;;
13469;SDS011;6807;48.682;9.032;2023-03-30T00:37:38;6.38;;;2.83;;
13469;SDS011;6807;48.682;9.032;2023-03-30T00:40:14;10.50;;;3.65;;
13469;SDS011;6807;48.682;9.032;2023-03-30T00:42:44;9.85;;;3.05;;
13469;SDS011;6807;48.682;9.032;2023-03-30T00:45:20;6.05;;;2.50;;
13469;SDS011;6807;48.682;9.032;2023-03-30T00:47:57;7.72;;;3.55;;
13469;SDS011;6807;48.682;9.032;2023-03-30T00:50:30;8.45;;;3.63;;
13469;SDS011;6807;48.682;9.032;2023-03-30T00:53:04;11.07;;;3.35;;
13469;SDS011;6807;48.682;9.032;2023-03-30T00:55:37;9.88;;;2.83;;
13469;SDS011;6807;48.682;9.032;2023-03-30T00:58:08;12.13;;;3.20;;
13469;SDS011;6807;48.682;9.032;2023-03-30T01:00:38;7.15;;;2.50;;
13469;SDS011;6807;48.682;9.032;2023-03-30T01:03:09;12.43;;;2.95;;
13469;SDS011;6807;48.682;9.032;2023-03-30T01:05:44;15.10;;;3.25;;
13469;SDS011;6807;48.682;9.032;2023-03-30T01:08:13;8.85;;;2.63;;
13469;SDS011;6807;48.682;9.032;2023-03-30T01:10:43;5.85;;;2.40;;
13469;SDS011;6807;48.682;9.032;2023-03-30T01:13:10;8.82;;;2.92;;
13469;SDS011;6807;48.682;9.032;2023-03-30T01:15:45;5.72;;;2.30;;
13469;SDS011;6807;48.682;9.032;2023-03-30T01:18:28;9.30;;;2.58;;
13469;SDS011;6807;48.682;9.032;2023-03-30T01:21:27;14.25;;;3.40;;
13469;SDS011;6807;48.682;9.032;2023-03-30T01:24:37;8.68;;;2.78;;
13469;SDS011;6807;48.682;9.032;2023-03-30T01:27:44;8.77;;;2.90;;
13469;SDS011;6807;48.682;9.032;2023-03-30T01:30:36;8.80;;;2.72;;
13469;SDS011;6807;48.682;9.032;2023-03-30T01:39:22;12.02;;;3.15;;
13469;SDS011;6807;48.682;9.032;2023-03-30T01:42:04;10.35;;;3.25;;
13469;SDS011;6807;48.682;9.032;2023-03-30T01:44:42;5.45;;;2.80;;
13469;SDS011;6807;48.682;9.032;2023-03-30T01:47:19;9.57;;;3.72;;
13469;SDS011;6807;48.682;9.032;2023-03-30T01:49:53;5.22;;;2.88;;
13469;SDS011;6807;48.682;9.032;2023-03-30T01:52:27;8.20;;;2.83;;
13469;SDS011;6807;48.682;9.032;2023-03-30T01:55:03;7.72;;;3.85;;
13469;SDS011;6807;48.682;9.032;2023-03-30T01:57:39;9.43;;;3.88;;
13469;SDS011;6807;48.682;9.032;2023-03-30T02:00:11;7.78;;;3.15;;
13469;SDS011;6807;48.682;9.032;2023-03-30T02:02:46;7.50;;;3.10;;
13469;SDS011;6807;48.682;9.032;2023-03-30T02:05:20;7.40;;;3.10;;
13469;SDS011;6807;48.682;9.032;2023-03-30T02:07:52;10.75;;;3.47;;
13469;SDS011;6807;48.682;9.032;2023-03-30T02:10:25;6.57;;;2.67;;
13469;SDS011;6807;48.682;9.032;2023-03-30T02:12:56;10.63;;;3.67;;
13469;SDS011;6807;48.682;9.032;2023-03-30T02:15:29;12.65;;;3.20;;
13469;SDS011;6807;48.682;9.032;2023-03-30T02:18:03;11.77;;;3.63;;
13469;SDS011;6807;48.682;9.032;2023-03-30T02:20:31;7.55;;;2.88;;
13469;SDS011;6807;48.682;9.032;2023-03-30T02:22:58;5.28;;;2.47;;
13469;SDS011;6807;48.682;9.032;2023-03-30T02:25:27;8.05;;;2.92;;
13469;SDS011;6807;48.682;9.032;2023-03-30T02:27:56;6.55;;;2.80;;
13469;SDS011;6807;48.682;9.032;2023-03-30T02:30:23;10.77;;;2.88;;
13469;SDS011;6807;48.682;9.032;2023-03-30T02:32:51;11.02;;;2.90;;
13469;SDS011;6807;48.682;9.032;2023-03-30T02:35:23;15.52;;;3.17;;
13469;SDS011;6807;48.682;9.032;2023-03-30T02:38:12;6.18;;;2.75;;
13469;SDS011;6807;48.682;9.032;2023-03-30T02:41:02;7.13;;;3.30;;
13469;SDS011;6807;48.682;9.032;2023-03-30T02:43:37;8.88;;;2.90;;
13469;SDS011;6807;48.682;9.032;2023-03-30T02:46:25;7.50;;;2.83;;
13469;SDS011;6807;48.682;9.032;2023-03-30T02:49:12;10.68;;;2.97;;
13469;SDS011;6807;48.682;9.032;2023-03-30T02:51:45;11.18;;;2.80;;
13469;SDS011;6807;48.682;9.032;2023-03-30T02:54:20;15.68;;;3.97;;
13469;SDS011;6807;48.682;9.032;2023-03-30T02:56:56;9.68;;;3.20;;
13469;SDS011;6807;48.682;9.032;2023-03-30T02:59:33;12.20;;;3.30;;
13469;SDS011;6807;48.682;9.032;2023-03-30T03:02:08;9.93;;;3.10;;
13469;SDS011;6807;48.682;9.032;2023-03-30T03:04:38;9.75;;;3.28;;
13469;SDS011;6807;48.682;9.032;2023-03-30T03:07:08;11.63;;;4.30;;
13469;SDS011;6807;48.682;9.032;2023-03-30T03:09:36;13.05;;;3.15;;
13469;SDS011;6807;48.682;9.032;2023-03-30T03:12:04;8.98;;;3.25;;
13469;SDS011;6807;48.682;9.032;2023-03-30T03:14:31;9.52;;;3.10;;
13469;SDS011;6807;48.682;9.032;2023-03-30T03:16:58;12.00;;;4.25;;
13469;SDS011;6807;48.682;9.032;2023-03-30T03:19:25;18.80;;;4.32;;
13469;SDS011;6807;48.682;9.032;2023-03-30T03:21:52;16.27;;;3.50;;
13469;SDS011;6807;48.682;9.032;2023-03-30T03:24:20;9.85;;;3.35;;
13469;SDS011;6807;48.682;9.032;2023-03-30T03:26:47;11.77;;;3.50;;
13469;SDS011;6807;48.682;9.032;2023-03-30T03:29:18;9.73;;;2.80;;
13469;SDS011;6807;48.682;9.032;2023-03-30T03:31:45;11.10;;;4.13;;
13469;SDS011;6807;48.682;9.032;2023-03-30T03:34:12;9.50;;;4.22;;
13469;SDS011;6807;48.682;9.032;2023-03-30T03:36:42;11.77;;;3.30;;
13469;SDS011;6807;48.682;9.032;2023-03-30T03:39:09;11.20;;;2.92;;
13469;SDS011;6807;48.682;9.032;2023-03-30T03:41:35;10.90;;;3.10;;
13469;SDS011;6807;48.682;9.032;2023-03-30T03:44:03;9.80;;;3.53;;
13469;SDS011;6807;48.682;9.032;2023-03-30T03:46:35;12.23;;;4.40;;
13469;SDS011;6807;48.682;9.032;2023-03-30T03:49:02;9.38;;;3.30;;
13469;SDS011;6807;48.682;9.032;2023-03-30T03:51:29;17.40;;;5.05;;
13469;SDS011;6807;48.682;9.032;2023-03-30T03:54:00;9.85;;;3.45;;
13469;SDS011;6807;48.682;9.032;2023-03-30T03:56:29;11.88;;;3.63;;
13469;SDS011;6807;48.682;9.032;2023-03-30T03:58:57;7.00;;;3.13;;
13469;SDS011;6807;48.682;9.032;2023-03-30T04:01:26;9.77;;;3.30;;
13469;SDS011;6807;48.682;9.032;2023-03-30T04:03:56;11.85;;;3.47;;
13469;SDS011;6807;48.682;9.032;2023-03-30T04:06:23;9.45;;;3.45;;
13469;SDS011;6807;48.682;9.032;2023-03-30T04:08:51;9.73;;;3.42;;
13469;SDS011;6807;48.682;9.032;2023-03-30T04:11:18;12.68;;;5.13;;
13469;SDS011;6807;48.682;9.032;2023-03-30T04:13:46;12.80;;;3.50;;
13469;SDS011;6807;48.682;9.032;2023-03-30T04:16:13;9.00;;;3.67;;
13469;SDS011;6807;48.682;9.032;2023-03-30T04:18:40;10.82;;;4.60;;
13469;SDS011;6807;48.682;9.032;2023-03-30T04:21:09;15.02;;;3.70;;
13469;SDS011;6807;48.682;9.032;2023-03-30T04:23:39;14.15;;;4.57;;
13469;SDS011;6807;48.682;9.032;2023-03-30T04:26:09;8.82;;;3.55;;
13469;SDS011;6807;48.682;9.032;2023-03-30T04:28:40;10.55;;;3.95;;
13469;SDS011;6807;48.682;9.032;2023-03-30T04:31:07;9.60;;;3.28;;
13469;SDS011;6807;48.682;9.032;2023-03-30T04:33:37;9.13;;;3.10;;
13469;SDS011;6807;48.682;9.032;2023-03-30T04:36:10;11.68;;;4.15;;
13469;SDS011;6807;48.682;9.032;2023-03-30T04:38:42;9.13;;;3.22;;
13469;SDS011;6807;48.682;9.032;2023-03-30T04:41:24;10.07;;;3.42;;
13469;SDS011;6807;48.682;9.032;2023-03-30T04:43:58;10.75;;;3.40;;
13469;SDS011;6807;48.682;9.032;2023-03-30T04:46:26;13.25;;;3.20;;
13469;SDS011;6807;48.682;9.032;2023-03-30T04:48:53;10.07;;;3.35;;
13469;SDS011;6807;48.682;9.032;2023-03-30T04:51:22;12.70;;;3.72;;
13469;SDS011;6807;48.682;9.032;2023-03-30T04:53:49;7.88;;;3.83;;
13469;SDS011;6807;48.682;9.032;2023-03-30T04:56:16;12.43;;;3.75;;
13469;SDS011;6807;48.682;9.032;2023-03-30T04:58:43;9.68;;;3.78;;
13469;SDS011;6807;48.682;9.032;2023-03-30T05:01:10;9.23;;;3.10;;
13469;SDS011;6807;48.682;9.032;2023-03-30T05:03:37;8.20;;;3.55;;
13469;SDS011;6807;48.682;9.032;2023-03-30T05:06:04;9.90;;;3.90;;
13469;SDS011;6807;48.682;9.032;2023-03-30T05:08:34;12.55;;;4.22;;
13469;SDS011;6807;48.682;9.032;2023-03-30T05:11:01;9.85;;;4.20;;
13469;SDS011;6807;48.682;9.032;2023-03-30T05:13:29;13.82;;;4.20;;
13469;SDS011;6807;48.682;9.032;2023-03-30T05:15:56;10.80;;;4.18;;
13469;SDS011;6807;48.682;9.032;2023-03-30T05:18:23;9.30;;;3.45;;
13469;SDS011;6807;48.682;9.032;2023-03-30T05:20:50;11.52;;;4.47;;
13469;SDS011;6807;48.682;9.032;2023-03-30T05:23:18;11.90;;;5.20;;
13469;SDS011;6807;48.682;9.032;2023-03-30T05:25:46;13.55;;;4.30;;
13469;SDS011;6807;48.682;9.032;2023-03-30T05:28:14;10.65;;;4.10;;
13469;SDS011;6807;48.682;9.032;2023-03-30T05:30:42;10.48;;;4.20;;
13469;SDS011;6807;48.682;9.032;2023-03-30T05:33:10;17.15;;;4.70;;
13469;SDS011;6807;48.682;9.032;2023-03-30T05:35:37;10.13;;;4.32;;
13469;SDS011;6807;48.682;9.032;2023-03-30T05:38:04;10.75;;;5.15;;
13469;SDS011;6807;48.682;9.032;2023-03-30T05:40:32;12.57;;;5.10;;
13469;SDS011;6807;48.682;9.032;2023-03-30T05:43:02;13.15;;;6.32;;
13469;SDS011;6807;48.682;9.032;2023-03-30T05:45:29;12.88;;;4.82;;
13469;SDS011;6807;48.682;9.032;2023-03-30T05:47:57;8.75;;;5.35;;
13469;SDS011;6807;48.682;9.032;2023-03-30T05:50:24;11.00;;;6.05;;
13469;SDS011;6807;48.682;9.032;2023-03-30T05:52:51;20.25;;;7.25;;
13469;SDS011;6807;48.682;9.032;2023-03-30T05:55:18;13.68;;;6.30;;
13469;SDS011;6807;48.682;9.032;2023-03-30T05:57:45;13.27;;;4.63;;
13469;SDS011;6807;48.682;9.032;2023-03-30T06:00:14;9.75;;;3.85;;
13469;SDS011;6807;48.682;9.032;2023-03-30T06:02:44;10.40;;;4.10;;
13469;SDS011;6807;48.682;9.032;2023-03-30T06:05:12;13.05;;;4.40;;
13469;SDS011;6807;48.682;9.032;2023-03-30T06:07:39;10.70;;;4.68;;
13469;SDS011;6807;48.682;9.032;2023-03-30T06:10:06;7.63;;;3.47;;
13469;SDS011;6807;48.682;9.032;2023-03-30T06:12:34;12.63;;;3.90;;
13469;SDS011;6807;48.682;9.032;2023-03-30T06:15:03;11.13;;;3.80;;
13469;SDS011;6807;48.682;9.032;2023-03-30T06:17:34;15.07;;;3.75;;
13469;SDS011;6807;48.682;9.032;2023-03-30T06:20:01;10.13;;;3.17;;
13469;SDS011;6807;48.682;9.032;2023-03-30T06:22:35;11.45;;;4.82;;
13469;SDS011;6807;48.682;9.032;2023-03-30T06:25:02;12.15;;;3.50;;
13469;SDS011;6807;48.682;9.032;2023-03-30T06:27:30;9.15;;;3.97;;
13469;SDS011;6807;48.682;9.032;2023-03-30T06:29:57;11.02;;;3.35;;
13469;SDS011;6807;48.682;9.032;2023-03-30T06:32:26;12.45;;;3.40;;
13469;SDS011;6807;48.682;9.032;2023-03-30T06:34:55;8.27;;;3.25;;
13469;SDS011;6807;48.682;9.032;2023-03-30T06:37:22;15.25;;;3.33;;
13469;SDS011;6807;48.682;9.032;2023-03-30T06:39:49;10.02;;;3.20;;
13469;SDS011;6807;48.682;9.032;2023-03-30T06:42:17;13.07;;;4.47;;
13469;SDS011;6807;48.682;9.032;2023-03-30T06:44:45;10.70;;;4.38;;
13469;SDS011;6807;48.682;9.032;2023-03-30T06:47:12;10.10;;;4.22;;
13469;SDS011;6807;48.682;9.032;2023-03-30T06:49:39;11.93;;;3.20;;
13469;SDS011;6807;48.682;9.032;2023-03-30T06:52:08;10.60;;;3.00;;
13469;SDS011;6807;48.682;9.032;2023-03-30T06:54:35;9.55;;;3.47;;
13469;SDS011;6807;48.682;9.032;2023-03-30T06:57:03;9.60;;;3.40;;
13469;SDS011;6807;48.682;9.032;2023-03-30T06:59:30;7.03;;;3.05;;
13469;SDS011;6807;48.682;9.032;2023-03-30T07:01:59;16.35;;;4.20;;
13469;SDS011;6807;48.682;9.032;2023-03-30T07:04:27;13.50;;;3.72;;
13469;SDS011;6807;48.682;9.032;2023-03-30T07:06:54;9.55;;;3.40;;
13469;SDS011;6807;48.682;9.032;2023-03-30T07:09:23;9.20;;;3.50;;
13469;SDS011;6807;48.682;9.032;2023-03-30T07:11:50;16.08;;;4.07;;
13469;SDS011;6807;48.682;9.032;2023-03-30T07:14:17;9.02;;;3.63;;
13469;SDS011;6807;48.682;9.032;2023-03-30T07:16:44;11.18;;;3.78;;
13469;SDS011;6807;48.682;9.032;2023-03-30T07:19:12;14.20;;;4.40;;
13469;SDS011;6807;48.682;9.032;2023-03-30T07:21:40;6.78;;;3.58;;
13469;SDS011;6807;48.682;9.032;2023-03-30T07:24:07;9.55;;;4.43;;
13469;SDS011;6807;48.682;9.032;2023-03-30T07:26:35;9.48;;;3.53;;
13469;SDS011;6807;48.682;9.032;2023-03-30T07:29:02;18.15;;;4.60;;
13469;SDS011;6807;48.682;9.032;2023-03-30T07:31:30;13.27;;;4.05;;
13469;SDS011;6807;48.682;9.032;2023-03-30T07:33:58;7.97;;;4.43;;
13469;SDS011;6807;48.682;9.032;2023-03-30T07:36:27;12.43;;;4.50;;
13469;SDS011;6807;48.682;9.032;2023-03-30T07:38:54;11.35;;;4.22;;
13469;SDS011;6807;48.682;9.032;2023-03-30T07:41:22;14.25;;;4.55;;
13469;SDS011;6807;48.682;9.032;2023-03-30T07:43:54;15.13;;;5.13;;
13469;SDS011;6807;48.682;9.032;2023-03-30T07:46:21;11.85;;;5.25;;
13469;SDS011;6807;48.682;9.032;2023-03-30T07:48:48;12.77;;;4.93;;
13469;SDS011;6807;48.682;9.032;2023-03-30T07:51:15;11.77;;;4.60;;
13469;SDS011;6807;48.682;9.032;2023-03-30T07:53:42;13.38;;;5.45;;
13469;SDS011;6807;48.682;9.032;2023-03-30T07:56:14;13.63;;;4.90;;
13469;SDS011;6807;48.682;9.032;2023-03-30T07:58:41;13.77;;;4.88;;
13469;SDS011;6807;48.682;9.032;2023-03-30T08:01:10;13.85;;;5.20;;
13469;SDS011;6807;48.682;9.032;2023-03-30T08:03:38;16.35;;;5.28;;
13469;SDS011;6807;48.682;9.032;2023-03-30T08:06:09;14.40;;;4.93;;
13469;SDS011;6807;48.682;9.032;2023-03-30T08:08:40;13.88;;;6.15;;
13469;SDS011;6807;48.682;9.032;2023-03-30T08:11:07;11.57;;;6.25;;
13469;SDS011;6807;48.682;9.032;2023-03-30T08:13:39;15.38;;;5.78;;
13469;SDS011;6807;48.682;9.032;2023-03-30T08:16:07;15.30;;;5.40;;
13469;SDS011;6807;48.682;9.032;2023-03-30T08:18:35;11.23;;;5.43;;
13469;SDS011;6807;48.682;9.032;2023-03-30T08:21:02;15.60;;;5.60;;
13469;SDS011;6807;48.682;9.032;2023-03-30T08:23:30;13.60;;;5.35;;
13469;SDS011;6807;48.682;9.032;2023-03-30T08:25:58;11.32;;;5.30;;
13469;SDS011;6807;48.682;9.032;2023-03-30T08:28:25;11.55;;;4.40;;
13469;SDS011;6807;48.682;9.032;2023-03-30T08:30:53;11.63;;;4.68;;
13469;SDS011;6807;48.682;9.032;2023-03-30T08:33:27;11.75;;;5.35;;
13469;SDS011;6807;48.682;9.032;2023-03-30T08:35:55;17.00;;;7.72;;
13469;SDS011;6807;48.682;9.032;2023-03-30T08:38:22;16.88;;;6.70;;
13469;SDS011;6807;48.682;9.032;2023-03-30T08:40:49;24.45;;;12.05;;
13469;SDS011;6807;48.682;9.032;2023-03-30T08:43:37;20.25;;;12.07;;
13469;SDS011;6807;48.682;9.032;2023-03-30T08:46:12;9.82;;;4.22;;
13469;SDS011;6807;48.682;9.032;2023-03-30T08:48:41;7.30;;;3.45;;
13469;SDS011;6807;48.682;9.032;2023-03-30T08:51:13;2.45;;;2.25;;
13469;SDS011;6807;48.682;9.032;2023-03-30T08:53:45;5.63;;;2.78;;
13469;SDS011;6807;48.682;9.032;2023-03-30T08:56:18;5.68;;;2.10;;
13469;SDS011;6807;48.682;9.032;2023-03-30T08:58:49;3.47;;;2.13;;
13469;SDS011;6807;48.682;9.032;2023-03-30T09:01:25;3.30;;;2.08;;
13469;SDS011;6807;48.682;9.032;2023-03-30T09:04:05;3.72;;;2.30;;
13469;SDS011;6807;48.682;9.032;2023-03-30T09:06:44;5.05;;;2.00;;
13469;SDS011;6807;48.682;9.032;2023-03-30T09:09:15;6.22;;;2.63;;
13469;SDS011;6807;48.682;9.032;2023-03-30T09:11:44;4.03;;;2.08;;
13469;SDS011;6807;48.682;9.032;2023-03-30T09:14:17;3.03;;;2.25;;
13469;SDS011;6807;48.682;9.032;2023-03-30T09:16:51;2.53;;;2.30;;
13469;SDS011;6807;48.682;9.032;2023-03-30T09:19:24;3.60;;;2.10;;
13469;SDS011;6807;48.682;9.032;2023-03-30T09:22:00;2.05;;;1.80;;
13469;SDS011;6807;48.682;9.032;2023-03-30T09:24:30;3.42;;;2.10;;
13469;SDS011;6807;48.682;9.032;2023-03-30T09:26:59;4.45;;;2.47;;
13469;SDS011;6807;48.682;9.032;2023-03-30T09:29:30;3.75;;;2.30;;
13469;SDS011;6807;48.682;9.032;2023-03-30T09:32:07;3.15;;;2.25;;
13469;SDS011;6807;48.682;9.032;2023-03-30T09:34:39;3.50;;;2.03;;
13469;SDS011;6807;48.682;9.032;2023-03-30T09:37:16;3.70;;;2.88;;
13469;SDS011;6807;48.682;9.032;2023-03-30T09:39:45;4.55;;;2.10;;
13469;SDS011;6807;48.682;9.032;2023-03-30T09:42:16;4.35;;;2.67;;
13469;SDS011;6807;48.682;9.032;2023-03-30T09:44:54;3.88;;;2.13;;
13469;SDS011;6807;48.682;9.032;2023-03-30T09:47:25;4.68;;;2.20;;
13469;SDS011;6807;48.682;9.032;2023-03-30T09:49:57;3.33;;;2.13;;
13469;SDS011;6807;48.682;9.032;2023-03-30T09:52:29;3.22;;;2.20;;
13469;SDS011;6807;48.682;9.032;2023-03-30T09:55:03;4.18;;;2.40;;
13469;SDS011;6807;48.682;9.032;2023-03-30T09:57:53;3.85;;;2.65;;
13469;SDS011;6807;48.682;9.032;2023-03-30T10:00:37;3.38;;;2.53;;
13469;SDS011;6807;48.682;9.032;2023-03-30T10:03:05;5.57;;;2.70;;
13469;SDS011;6807;48.682;9.032;2023-03-30T10:05:33;2.78;;;2.38;;
13469;SDS011;6807;48.682;9.032;2023-03-30T10:08:03;4.45;;;2.50;;
13469;SDS011;6807;48.682;9.032;2023-03-30T10:10:33;3.17;;;2.40;;
13469;SDS011;6807;48.682;9.032;2023-03-30T10:13:02;7.45;;;2.72;;
13469;SDS011;6807;48.682;9.032;2023-03-30T10:15:31;3.92;;;3.03;;
13469;SDS011;6807;48.682;9.032;2023-03-30T10:18:17;2.83;;;2.50;;
13469;SDS011;6807;48.682;9.032;2023-03-30T10:20:49;4.53;;;2.85;;
13469;SDS011;6807;48.682;9.032;2023-03-30T10:23:22;4.07;;;2.92;;
13469;SDS011;6807;48.682;9.032;2023-03-30T10:25:59;3.15;;;2.10;;
13469;SDS011;6807;48.682;9.032;2023-03-30T10:28:29;4.80;;;2.70;;
13469;SDS011;6807;48.682;9.032;2023-03-30T10:31:00;5.07;;;2.70;;
13469;SDS011;6807;48.682;9.032;2023-03-30T10:33:30;4.63;;;2.67;;
13469;SDS011;6807;48.682;9.032;2023-03-30T10:36:03;3.90;;;2.40;;
13469;SDS011;6807;48.682;9.032;2023-03-30T10:38:34;8.23;;;3.03;;
13469;SDS011;6807;48.682;9.032;2023-03-30T10:41:06;5.38;;;2.70;;
13469;SDS011;6807;48.682;9.032;2023-03-30T10:43:35;4.63;;;2.53;;
13469;SDS011;6807;48.682;9.032;2023-03-30T10:46:07;6.32;;;2.95;;
13469;SDS011;6807;48.682;9.032;2023-03-30T10:48:45;3.92;;;3.20;;
13469;SDS011;6807;48.682;9.032;2023-03-30T10:51:38;5.97;;;3.03;;
13469;SDS011;6807;48.682;9.032;2023-03-30T10:54:19;5.45;;;2.78;;
13469;SDS011;6807;48.682;9.032;2023-03-30T10:56:52;8.02;;;3.28;;
13469;SDS011;6807;48.682;9.032;2023-03-30T10:59:30;6.18;;;2.92;;
13469;SDS011;6807;48.682;9.032;2023-03-30T11:02:21;5.15;;;3.13;;
13469;SDS011;6807;48.682;9.032;2023-03-30T11:04:58;8.73;;;3.58;;
13469;SDS011;6807;48.682;9.032;2023-03-30T11:07:33;5.43;;;3.88;;
13469;SDS011;6807;48.682;9.032;2023-03-30T11:10:09;7.78;;;3.60;;
13469;SDS011;6807;48.682;9.032;2023-03-30T11:12:42;5.50;;;2.90;;
13469;SDS011;6807;48.682;9.032;2023-03-30T11:15:16;7.05;;;3.67;;
13469;SDS011;6807;48.682;9.032;2023-03-30T11:17:53;8.52;;;3.58;;
13469;SDS011;6807;48.682;9.032;2023-03-30T11:20:31;5.15;;;3.92;;
13469;SDS011;6807;48.682;9.032;2023-03-30T11:23:05;5.85;;;3.55;;
13469;SDS011;6807;48.682;9.032;2023-03-30T11:25:49;5.82;;;3.47;;
13469;SDS011;6807;48.682;9.032;2023-03-30T11:28:31;8.20;;;3.22;;
13469;SDS011;6807;48.682;9.032;2023-03-30T11:31:11;4.05;;;3.28;;
13469;SDS011;6807;48.682;9.032;2023-03-30T11:33:49;5.05;;;3.10;;
13469;SDS011;6807;48.682;9.032;2023-03-30T11:36:23;5.47;;;3.10;;
13469;SDS011;6807;48.682;9.032;2023-03-30T11:38:58;6.13;;;3.30;;
13469;SDS011;6807;48.682;9.032;2023-03-30T11:41:37;11.77;;;3.63;;
13469;SDS011;6807;48.682;9.032;2023-03-30T11:44:08;7.72;;;3.50;;
13469;SDS011;6807;48.682;9.032;2023-03-30T11:46:38;7.85;;;3.10;;
13469;SDS011;6807;48.682;9.032;2023-03-30T11:49:12;4.75;;;3.15;;
13469;SDS011;6807;48.682;9.032;2023-03-30T11:51:57;6.30;;;3.10;;
13469;SDS011;6807;48.682;9.032;2023-03-30T11:54:37;5.95;;;3.20;;
13469;SDS011;6807;48.682;9.032;2023-03-30T11:57:30;10.32;;;3.25;;
13469;SDS011;6807;48.682;9.032;2023-03-30T12:00:07;11.68;;;3.30;;
13469;SDS011;6807;48.682;9.032;2023-03-30T12:02:53;5.75;;;3.20;;
13469;SDS011;6807;48.682;9.032;2023-03-30T12:05:27;10.70;;;4.20;;
13469;SDS011;6807;48.682;9.032;2023-03-30T12:08:02;4.57;;;3.13;;
13469;SDS011;6807;48.682;9.032;2023-03-30T12:10:43;8.77;;;3.72;;
13469;SDS011;6807;48.682;9.032;2023-03-30T12:13:15;6.47;;;3.47;;
13469;SDS011;6807;48.682;9.032;2023-03-30T12:15:47;5.50;;;3.42;;
13469;SDS011;6807;48.682;9.032;2023-03-30T12:18:24;5.70;;;3.50;;
13469;SDS011;6807;48.682;9.032;2023-03-30T12:20:56;3.97;;;2.90;;
13469;SDS011;6807;48.682;9.032;2023-03-30T12:23:40;7.68;;;3.45;;
13469;SDS011;6807;48.682;9.032;2023-03-30T12:26:17;6.57;;;2.97;;
13469;SDS011;6807;48.682;9.032;2023-03-30T12:28:56;5.63;;;2.65;;
13469;SDS011;6807;48.682;9.032;2023-03-30T12:34:16;3.92;;;2.75;;
13469;SDS011;6807;48.682;9.032;2023-03-30T12:36:46;8.43;;;3.20;;
13469;SDS011;6807;48.682;9.032;2023-03-30T12:39:16;6.38;;;3.00;;
13469;SDS011;6807;48.682;9.032;2023-03-30T12:41:51;7.85;;;3.08;;
13469;SDS011;6807;48.682;9.032;2023-03-30T12:44:34;6.40;;;2.90;;
13469;SDS011;6807;48.682;9.032;2023-03-30T12:47:18;4.38;;;2.40;;
13469;SDS011;6807;48.682;9.032;2023-03-30T12:50:08;5.10;;;2.40;;
13469;SDS011;6807;48.682;9.032;2023-03-30T12:52:58;4.40;;;2.65;;
13469;SDS011;6807;48.682;9.032;2023-03-30T12:55:44;4.22;;;2.45;;
13469;SDS011;6807;48.682;9.032;2023-03-30T12:58:25;11.15;;;3.05;;
13469;SDS011;6807;48.682;9.032;2023-03-30T13:01:11;5.00;;;2.30;;
13469;SDS011;6807;48.682;9.032;2023-03-30T13:03:45;3.30;;;2.40;;
13469;SDS011;6807;48.682;9.032;2023-03-30T13:06:25;7.00;;;2.30;;
13469;SDS011;6807;48.682;9.032;2023-03-30T13:09:01;5.55;;;2.88;;
13469;SDS011;6807;48.682;9.032;2023-03-30T13:14:46;3.55;;;2.28;;
13469;SDS011;6807;48.682;9.032;2023-03-30T13:17:23;5.10;;;2.35;;
13469;SDS011;6807;48.682;9.032;2023-03-30T13:22:38;7.20;;;3.33;;
13469;SDS011;6807;48.682;9.032;2023-03-30T13:25:24;4.30;;;2.47;;
13469;SDS011;6807;48.682;9.032;2023-03-30T13:27:56;5.38;;;2.85;;
13469;SDS011;6807;48.682;9.032;2023-03-30T13:30:25;5.82;;;2.50;;
13469;SDS011;6807;48.682;9.032;2023-03-30T13:32:57;5.05;;;3.00;;
13469;SDS011;6807;48.682;9.032;2023-03-30T13:35:58;3.72;;;2.30;;
13469;SDS011;6807;48.682;9.032;2023-03-30T13:38:41;5.15;;;2.60;;
13469;SDS011;6807;48.682;9.032;2023-03-30T13:41:28;6.00;;;2.53;;
13469;SDS011;6807;48.682;9.032;2023-03-30T13:44:04;4.20;;;2.45;;
13469;SDS011;6807;48.682;9.032;2023-03-30T13:46:48;4.97;;;2.50;;
13469;SDS011;6807;48.682;9.032;2023-03-30T13:49:29;5.63;;;2.30;;
13469;SDS011;6807;48.682;9.032;2023-03-30T13:52:08;6.05;;;2.22;;
13469;SDS011;6807;48.682;9.032;2023-03-30T13:54:37;6.65;;;2.80;;
13469;SDS011;6807;48.682;9.032;2023-03-30T13:57:07;4.15;;;2.28;;
13469;SDS011;6807;48.682;9.032;2023-03-30T13:59:40;4.75;;;2.50;;
13469;SDS011;6807;48.682;9.032;2023-03-30T14:02:12;6.30;;;2.38;;
13469;SDS011;6807;48.682;9.032;2023-03-30T14:04:44;3.35;;;2.20;;
13469;SDS011;6807;48.682;9.032;2023-03-30T14:07:13;8.73;;;2.60;;
13469;SDS011;6807;48.682;9.032;2023-03-30T14:09:42;4.97;;;2.08;;
13469;SDS011;6807;48.682;9.032;2023-03-30T14:12:10;3.03;;;2.17;;
13469;SDS011;6807;48.682;9.032;2023-03-30T14:14:41;3.33;;;1.85;;
13469;SDS011;6807;48.682;9.032;2023-03-30T14:17:13;4.90;;;1.95;;
13469;SDS011;6807;48.682;9.032;2023-03-30T14:19:46;5.97;;;1.90;;
13469;SDS011;6807;48.682;9.032;2023-03-30T14:22:25;4.00;;;1.90;;
13469;SDS011;6807;48.682;9.032;2023-03-30T14:24:56;3.08;;;1.88;;
13469;SDS011;6807;48.682;9.032;2023-03-30T14:27:24;4.13;;;2.28;;
13469;SDS011;6807;48.682;9.032;2023-03-30T14:29:58;3.13;;;1.70;;
13469;SDS011;6807;48.682;9.032;2023-03-30T14:32:25;3.45;;;1.90;;
13469;SDS011;6807;48.682;9.032;2023-03-30T14:34:52;4.60;;;2.40;;
13469;SDS011;6807;48.682;9.032;2023-03-30T14:37:21;2.72;;;2.00;;
13469;SDS011;6807;48.682;9.032;2023-03-30T14:40:02;6.68;;;2.47;;
13469;SDS011;6807;48.682;9.032;2023-03-30T14:42:37;3.28;;;2.20;;
13469;SDS011;6807;48.682;9.032;2023-03-30T14:45:07;4.75;;;1.90;;
13469;SDS011;6807;48.682;9.032;2023-03-30T14:47:34;3.90;;;2.20;;
13469;SDS011;6807;48.682;9.032;2023-03-30T14:50:03;3.65;;;1.75;;
13469;SDS011;6807;48.682;9.032;2023-03-30T14:52:37;4.07;;;1.98;;
13469;SDS011;6807;48.682;9.032;2023-03-30T14:55:05;4.40;;;2.22;;
13469;SDS011;6807;48.682;9.032;2023-03-30T14:57:39;2.15;;;1.60;;
13469;SDS011;6807;48.682;9.032;2023-03-30T15:00:12;2.80;;;1.80;;
13469;SDS011;6807;48.682;9.032;2023-03-30T15:02:43;5.88;;;2.25;;
13469;SDS011;6807;48.682;9.032;2023-03-30T15:05:13;4.68;;;2.40;;
13469;SDS011;6807;48.682;9.032;2023-03-30T15:07:44;4.47;;;2.30;;
13469;SDS011;6807;48.682;9.032;2023-03-30T15:10:19;2.47;;;1.88;;
13469;SDS011;6807;48.682;9.032;2023-03-30T15:12:49;2.97;;;2.33;;
13469;SDS011;6807;48.682;9.032;2023-03-30T15:15:18;5.88;;;2.05;;
13469;SDS011;6807;48.682;9.032;2023-03-30T15:17:54;3.95;;;2.10;;
13469;SDS011;6807;48.682;9.032;2023-03-30T15:20:23;4.13;;;2.20;;
13469;SDS011;6807;48.682;9.032;2023-03-30T15:22:51;3.88;;;1.77;;
13469;SDS011;6807;48.682;9.032;2023-03-30T15:25:23;2.03;;;1.60;;
13469;SDS011;6807;48.682;9.032;2023-03-30T15:28:00;3.83;;;1.70;;
13469;SDS011;6807;48.682;9.032;2023-03-30T15:30:33;4.10;;;1.77;;
13469;SDS011;6807;48.682;9.032;2023-03-30T15:33:02;3.47;;;1.75;;
13469;SDS011;6807;48.682;9.032;2023-03-30T15:35:31;3.50;;;1.80;;
13469;SDS011;6807;48.682;9.032;2023-03-30T15:38:00;3.40;;;1.83;;
13469;SDS011;6807;48.682;9.032;2023-03-30T15:40:30;3.40;;;1.95;;